sensor_id;sensor_type;location;lat;lon;timestamp;P1;durP1;ratioP1;P2;durP2;ratioP2
74457;SDS011;62896;51.032;3.712;2022-12-29T00:00:22;1.9;;;0.6;;
74457;SDS011;62896;51.032;3.712;2022-12-29T00:03:45;1.3;;;0.7;;
74457;SDS011;62896;51.032;3.712;2022-12-29T00:07:02;1.3;;;0.7;;
74457;SDS011;62896;51.032;3.712;2022-12-29T00:10:22;1.3;;;0.7;;
74457;SDS011;62896;51.032;3.712;2022-12-29T00:13:42;1.3;;;0.7;;
74457;SDS011;62896;51.032;3.712;2022-12-29T00:17:03;1.3;;;0.7;;
74457;SDS011;62896;51.032;3.712;2022-12-29T00:20:22;1.3;;;0.7;;
74457;SDS011;62896;51.032;3.712;2022-12-29T00:23:42;1.3;;;0.7;;
74457;SDS011;62896;51.032;3.712;2022-12-29T00:27:08;1;;;0.6;;
74457;SDS011;62896;51.032;3.712;2022-12-29T00:30:23;1;;;0.6;;
74457;SDS011;62896;51.032;3.712;2022-12-29T00:33:42;1;;;0.6;;
74457;SDS011;62896;51.032;3.712;2022-12-29T00:37:02;1;;;0.6;;
74457;SDS011;62896;51.032;3.712;2022-12-29T00:40:22;1;;;0.6;;
74457;SDS011;62896;51.032;3.712;2022-12-29T00:43:42;1;;;0.6;;
74457;SDS011;62896;51.032;3.712;2022-12-29T00:47:02;1;;;0.6;;
74457;SDS011;62896;51.032;3.712;2022-12-29T00:50:22;1;;;0.6;;
74457;SDS011;62896;51.032;3.712;2022-12-29T00:53:42;1.3;;;0.5;;
74457;SDS011;62896;51.032;3.712;2022-12-29T00:57:03;1.3;;;0.5;;
74457;SDS011;62896;51.032;3.712;2022-12-29T01:00:22;1.3;;;0.5;;
74457;SDS011;62896;51.032;3.712;2022-12-29T01:03:42;1.3;;;0.5;;
74457;SDS011;62896;51.032;3.712;2022-12-29T01:07:03;1.3;;;0.5;;
74457;SDS011;62896;51.032;3.712;2022-12-29T01:10:22;1.3;;;0.5;;
74457;SDS011;62896;51.032;3.712;2022-12-29T01:13:42;1.3;;;0.5;;
74457;SDS011;62896;51.032;3.712;2022-12-29T01:17:03;4.2;;;0.7;;
74457;SDS011;62896;51.032;3.712;2022-12-29T01:20:22;4.2;;;0.7;;
74457;SDS011;62896;51.032;3.712;2022-12-29T01:23:42;4.2;;;0.7;;
74457;SDS011;62896;51.032;3.712;2022-12-29T01:27:02;4.2;;;0.7;;
74457;SDS011;62896;51.032;3.712;2022-12-29T01:30:22;4.2;;;0.7;;
74457;SDS011;62896;51.032;3.712;2022-12-29T01:33:43;4.2;;;0.7;;
74457;SDS011;62896;51.032;3.712;2022-12-29T01:37:02;4.2;;;0.7;;
74457;SDS011;62896;51.032;3.712;2022-12-29T01:40:23;4.2;;;0.7;;
74457;SDS011;62896;51.032;3.712;2022-12-29T01:43:43;3.2;;;0.7;;
74457;SDS011;62896;51.032;3.712;2022-12-29T01:47:02;3.2;;;0.7;;
74457;SDS011;62896;51.032;3.712;2022-12-29T01:50:24;3.2;;;0.7;;
74457;SDS011;62896;51.032;3.712;2022-12-29T01:53:42;3.2;;;0.7;;
74457;SDS011;62896;51.032;3.712;2022-12-29T01:57:03;3.2;;;0.7;;
74457;SDS011;62896;51.032;3.712;2022-12-29T02:00:22;3.2;;;0.7;;
74457;SDS011;62896;51.032;3.712;2022-12-29T02:03:42;3.2;;;0.7;;
74457;SDS011;62896;51.032;3.712;2022-12-29T02:07:03;3.4;;;0.8;;
74457;SDS011;62896;51.032;3.712;2022-12-29T02:10:23;3.4;;;0.8;;
74457;SDS011;62896;51.032;3.712;2022-12-29T02:13:42;3.4;;;0.8;;
74457;SDS011;62896;51.032;3.712;2022-12-29T02:17:05;3.4;;;0.8;;
74457;SDS011;62896;51.032;3.712;2022-12-29T02:20:31;3.4;;;0.8;;
74457;SDS011;62896;51.032;3.712;2022-12-29T02:23:56;3.4;;;0.8;;
74457;SDS011;62896;51.032;3.712;2022-12-29T02:27:10;3.4;;;0.8;;
74457;SDS011;62896;51.032;3.712;2022-12-29T02:30:28;3.4;;;0.8;;
74457;SDS011;62896;51.032;3.712;2022-12-29T02:33:46;3.1;;;0.6;;
74457;SDS011;62896;51.032;3.712;2022-12-29T02:37:03;3.1;;;0.6;;
74457;SDS011;62896;51.032;3.712;2022-12-29T02:40:23;3.1;;;0.6;;
74457;SDS011;62896;51.032;3.712;2022-12-29T02:43:44;3.1;;;0.6;;
74457;SDS011;62896;51.032;3.712;2022-12-29T02:47:04;3.1;;;0.6;;
74457;SDS011;62896;51.032;3.712;2022-12-29T02:50:23;3.1;;;0.6;;
74457;SDS011;62896;51.032;3.712;2022-12-29T02:53:42;3.1;;;0.6;;
74457;SDS011;62896;51.032;3.712;2022-12-29T02:57:03;4.4;;;0.8;;
74457;SDS011;62896;51.032;3.712;2022-12-29T03:00:22;4.4;;;0.8;;
74457;SDS011;62896;51.032;3.712;2022-12-29T03:03:46;4.4;;;0.8;;
74457;SDS011;62896;51.032;3.712;2022-12-29T03:07:04;4.4;;;0.8;;
74457;SDS011;62896;51.032;3.712;2022-12-29T03:10:25;4.4;;;0.8;;
74457;SDS011;62896;51.032;3.712;2022-12-29T03:13:43;4.4;;;0.8;;
74457;SDS011;62896;51.032;3.712;2022-12-29T03:17:03;4.4;;;0.8;;
74457;SDS011;62896;51.032;3.712;2022-12-29T03:20:23;4.4;;;0.8;;
74457;SDS011;62896;51.032;3.712;2022-12-29T03:23:43;5.5;;;1.5;;
74457;SDS011;62896;51.032;3.712;2022-12-29T03:27:03;5.5;;;1.5;;
74457;SDS011;62896;51.032;3.712;2022-12-29T03:30:23;5.5;;;1.5;;
74457;SDS011;62896;51.032;3.712;2022-12-29T03:33:42;5.5;;;1.5;;
74457;SDS011;62896;51.032;3.712;2022-12-29T03:37:05;5.5;;;1.5;;
74457;SDS011;62896;51.032;3.712;2022-12-29T03:40:23;5.5;;;1.5;;
74457;SDS011;62896;51.032;3.712;2022-12-29T03:43:43;5.5;;;1.5;;
74457;SDS011;62896;51.032;3.712;2022-12-29T03:47:03;6.2;;;1;;
74457;SDS011;62896;51.032;3.712;2022-12-29T03:50:23;6.2;;;1;;
74457;SDS011;62896;51.032;3.712;2022-12-29T03:53:43;6.2;;;1;;
74457;SDS011;62896;51.032;3.712;2022-12-29T03:57:03;6.2;;;1;;
74457;SDS011;62896;51.032;3.712;2022-12-29T04:00:23;6.2;;;1;;
74457;SDS011;62896;51.032;3.712;2022-12-29T04:03:43;6.2;;;1;;
74457;SDS011;62896;51.032;3.712;2022-12-29T04:07:03;6.2;;;1;;
74457;SDS011;62896;51.032;3.712;2022-12-29T04:10:23;6.2;;;1;;
74457;SDS011;62896;51.032;3.712;2022-12-29T04:13:43;6.6;;;1.1;;
74457;SDS011;62896;51.032;3.712;2022-12-29T04:17:03;6.6;;;1.1;;
74457;SDS011;62896;51.032;3.712;2022-12-29T04:20:23;6.6;;;1.1;;
74457;SDS011;62896;51.032;3.712;2022-12-29T04:23:43;6.6;;;1.1;;
74457;SDS011;62896;51.032;3.712;2022-12-29T04:27:03;6.6;;;1.1;;
74457;SDS011;62896;51.032;3.712;2022-12-29T04:30:23;6.6;;;1.1;;
74457;SDS011;62896;51.032;3.712;2022-12-29T04:33:43;6.6;;;1.1;;
74457;SDS011;62896;51.032;3.712;2022-12-29T04:37:03;7;;;1;;
74457;SDS011;62896;51.032;3.712;2022-12-29T04:40:23;7;;;1;;
74457;SDS011;62896;51.032;3.712;2022-12-29T04:43:43;7;;;1;;
74457;SDS011;62896;51.032;3.712;2022-12-29T04:47:03;7;;;1;;
74457;SDS011;62896;51.032;3.712;2022-12-29T04:50:23;7;;;1;;
74457;SDS011;62896;51.032;3.712;2022-12-29T04:53:43;7;;;1;;
74457;SDS011;62896;51.032;3.712;2022-12-29T04:57:03;7;;;1;;
74457;SDS011;62896;51.032;3.712;2022-12-29T05:00:23;7;;;1;;
74457;SDS011;62896;51.032;3.712;2022-12-29T05:03:43;7.6;;;1.3;;
74457;SDS011;62896;51.032;3.712;2022-12-29T05:07:03;7.6;;;1.3;;
74457;SDS011;62896;51.032;3.712;2022-12-29T05:10:23;7.6;;;1.3;;
74457;SDS011;62896;51.032;3.712;2022-12-29T05:13:44;7.6;;;1.3;;
74457;SDS011;62896;51.032;3.712;2022-12-29T05:17:03;7.6;;;1.3;;
74457;SDS011;62896;51.032;3.712;2022-12-29T05:20:23;7.6;;;1.3;;
74457;SDS011;62896;51.032;3.712;2022-12-29T05:23:43;7.6;;;1.3;;
74457;SDS011;62896;51.032;3.712;2022-12-29T05:27:03;8.4;;;1;;
74457;SDS011;62896;51.032;3.712;2022-12-29T05:30:23;8.4;;;1;;
74457;SDS011;62896;51.032;3.712;2022-12-29T05:33:43;8.4;;;1;;
74457;SDS011;62896;51.032;3.712;2022-12-29T05:37:03;8.4;;;1;;
74457;SDS011;62896;51.032;3.712;2022-12-29T05:40:23;8.4;;;1;;
74457;SDS011;62896;51.032;3.712;2022-12-29T05:43:43;8.4;;;1;;
74457;SDS011;62896;51.032;3.712;2022-12-29T05:47:03;8.4;;;1;;
74457;SDS011;62896;51.032;3.712;2022-12-29T05:50:23;8.4;;;1;;
74457;SDS011;62896;51.032;3.712;2022-12-29T05:53:43;4.9;;;1;;
74457;SDS011;62896;51.032;3.712;2022-12-29T05:57:03;4.9;;;1;;
74457;SDS011;62896;51.032;3.712;2022-12-29T06:00:23;4.9;;;1;;
74457;SDS011;62896;51.032;3.712;2022-12-29T06:03:43;4.9;;;1;;
74457;SDS011;62896;51.032;3.712;2022-12-29T06:07:03;4.9;;;1;;
74457;SDS011;62896;51.032;3.712;2022-12-29T06:10:23;4.9;;;1;;
74457;SDS011;62896;51.032;3.712;2022-12-29T06:13:43;4.9;;;1;;
74457;SDS011;62896;51.032;3.712;2022-12-29T06:17:03;8.7;;;1.3;;
74457;SDS011;62896;51.032;3.712;2022-12-29T06:20:23;8.7;;;1.3;;
74457;SDS011;62896;51.032;3.712;2022-12-29T06:23:43;8.7;;;1.3;;
74457;SDS011;62896;51.032;3.712;2022-12-29T06:27:03;8.7;;;1.3;;
74457;SDS011;62896;51.032;3.712;2022-12-29T06:30:23;8.7;;;1.3;;
74457;SDS011;62896;51.032;3.712;2022-12-29T06:33:43;8.7;;;1.3;;
74457;SDS011;62896;51.032;3.712;2022-12-29T06:37:03;8.7;;;1.3;;
74457;SDS011;62896;51.032;3.712;2022-12-29T06:40:23;8.7;;;1.3;;
74457;SDS011;62896;51.032;3.712;2022-12-29T06:43:43;7.8;;;1.5;;
74457;SDS011;62896;51.032;3.712;2022-12-29T06:47:03;7.8;;;1.5;;
74457;SDS011;62896;51.032;3.712;2022-12-29T06:50:23;7.8;;;1.5;;
74457;SDS011;62896;51.032;3.712;2022-12-29T06:53:43;7.8;;;1.5;;
74457;SDS011;62896;51.032;3.712;2022-12-29T06:57:03;7.8;;;1.5;;
74457;SDS011;62896;51.032;3.712;2022-12-29T07:00:23;7.8;;;1.5;;
74457;SDS011;62896;51.032;3.712;2022-12-29T07:03:43;7.8;;;1.5;;
74457;SDS011;62896;51.032;3.712;2022-12-29T07:07:03;9.8;;;1.5;;
74457;SDS011;62896;51.032;3.712;2022-12-29T07:10:23;9.8;;;1.5;;
74457;SDS011;62896;51.032;3.712;2022-12-29T07:13:43;9.8;;;1.5;;
74457;SDS011;62896;51.032;3.712;2022-12-29T07:17:03;9.8;;;1.5;;
74457;SDS011;62896;51.032;3.712;2022-12-29T07:20:23;9.8;;;1.5;;
74457;SDS011;62896;51.032;3.712;2022-12-29T07:23:43;9.8;;;1.5;;
74457;SDS011;62896;51.032;3.712;2022-12-29T07:27:03;9.8;;;1.5;;
74457;SDS011;62896;51.032;3.712;2022-12-29T07:30:23;9.8;;;1.5;;
74457;SDS011;62896;51.032;3.712;2022-12-29T07:33:43;11.1;;;1.7;;
74457;SDS011;62896;51.032;3.712;2022-12-29T07:37:03;11.1;;;1.7;;
74457;SDS011;62896;51.032;3.712;2022-12-29T07:40:23;11.1;;;1.7;;
74457;SDS011;62896;51.032;3.712;2022-12-29T07:43:44;11.1;;;1.7;;
74457;SDS011;62896;51.032;3.712;2022-12-29T07:47:03;11.1;;;1.7;;
74457;SDS011;62896;51.032;3.712;2022-12-29T07:50:23;11.1;;;1.7;;
74457;SDS011;62896;51.032;3.712;2022-12-29T07:53:43;11.1;;;1.7;;
74457;SDS011;62896;51.032;3.712;2022-12-29T07:57:03;12.2;;;1.9;;
74457;SDS011;62896;51.032;3.712;2022-12-29T08:00:23;12.2;;;1.9;;
74457;SDS011;62896;51.032;3.712;2022-12-29T08:03:43;12.2;;;1.9;;
74457;SDS011;62896;51.032;3.712;2022-12-29T08:07:03;12.2;;;1.9;;
74457;SDS011;62896;51.032;3.712;2022-12-29T08:10:23;12.2;;;1.9;;
74457;SDS011;62896;51.032;3.712;2022-12-29T08:13:43;12.2;;;1.9;;
74457;SDS011;62896;51.032;3.712;2022-12-29T08:17:03;12.2;;;1.9;;
74457;SDS011;62896;51.032;3.712;2022-12-29T08:20:23;12.2;;;1.9;;
74457;SDS011;62896;51.032;3.712;2022-12-29T08:23:43;10.4;;;1.9;;
74457;SDS011;62896;51.032;3.712;2022-12-29T08:27:03;10.4;;;1.9;;
74457;SDS011;62896;51.032;3.712;2022-12-29T08:30:23;10.4;;;1.9;;
74457;SDS011;62896;51.032;3.712;2022-12-29T08:33:43;10.4;;;1.9;;
74457;SDS011;62896;51.032;3.712;2022-12-29T08:37:03;10.4;;;1.9;;
74457;SDS011;62896;51.032;3.712;2022-12-29T08:40:23;10.4;;;1.9;;
74457;SDS011;62896;51.032;3.712;2022-12-29T08:43:45;10.4;;;1.9;;
74457;SDS011;62896;51.032;3.712;2022-12-29T08:47:03;12.7;;;2.3;;
74457;SDS011;62896;51.032;3.712;2022-12-29T08:50:23;12.7;;;2.3;;
74457;SDS011;62896;51.032;3.712;2022-12-29T08:53:43;12.7;;;2.3;;
74457;SDS011;62896;51.032;3.712;2022-12-29T08:57:03;12.7;;;2.3;;
74457;SDS011;62896;51.032;3.712;2022-12-29T09:00:23;12.7;;;2.3;;
74457;SDS011;62896;51.032;3.712;2022-12-29T09:03:43;12.7;;;2.3;;
74457;SDS011;62896;51.032;3.712;2022-12-29T09:07:03;12.7;;;2.3;;
74457;SDS011;62896;51.032;3.712;2022-12-29T09:10:23;12.7;;;2.3;;
74457;SDS011;62896;51.032;3.712;2022-12-29T09:13:43;14.3;;;2.5;;
74457;SDS011;62896;51.032;3.712;2022-12-29T09:17:03;14.3;;;2.5;;
74457;SDS011;62896;51.032;3.712;2022-12-29T09:20:23;14.3;;;2.5;;
74457;SDS011;62896;51.032;3.712;2022-12-29T09:23:43;14.3;;;2.5;;
74457;SDS011;62896;51.032;3.712;2022-12-29T09:27:03;14.3;;;2.5;;
74457;SDS011;62896;51.032;3.712;2022-12-29T09:30:23;14.3;;;2.5;;
74457;SDS011;62896;51.032;3.712;2022-12-29T09:33:43;14.3;;;2.5;;
74457;SDS011;62896;51.032;3.712;2022-12-29T09:37:03;17.6;;;3;;
74457;SDS011;62896;51.032;3.712;2022-12-29T09:40:24;17.6;;;3;;
74457;SDS011;62896;51.032;3.712;2022-12-29T09:43:46;17.6;;;3;;
74457;SDS011;62896;51.032;3.712;2022-12-29T09:47:03;17.6;;;3;;
74457;SDS011;62896;51.032;3.712;2022-12-29T09:50:23;17.6;;;3;;
74457;SDS011;62896;51.032;3.712;2022-12-29T09:53:43;17.6;;;3;;
74457;SDS011;62896;51.032;3.712;2022-12-29T09:57:03;17.6;;;3;;
74457;SDS011;62896;51.032;3.712;2022-12-29T10:00:26;17.6;;;3;;
74457;SDS011;62896;51.032;3.712;2022-12-29T10:03:45;18;;;2.4;;
74457;SDS011;62896;51.032;3.712;2022-12-29T10:07:04;18;;;2.4;;
74457;SDS011;62896;51.032;3.712;2022-12-29T10:10:27;18;;;2.4;;
74457;SDS011;62896;51.032;3.712;2022-12-29T10:13:51;18;;;2.4;;
74457;SDS011;62896;51.032;3.712;2022-12-29T10:17:05;18;;;2.4;;
74457;SDS011;62896;51.032;3.712;2022-12-29T10:20:25;18;;;2.4;;
74457;SDS011;62896;51.032;3.712;2022-12-29T10:23:43;18;;;2.4;;
74457;SDS011;62896;51.032;3.712;2022-12-29T10:27:03;15.5;;;2.8;;
74457;SDS011;62896;51.032;3.712;2022-12-29T10:30:23;15.5;;;2.8;;
74457;SDS011;62896;51.032;3.712;2022-12-29T10:33:43;15.5;;;2.8;;
74457;SDS011;62896;51.032;3.712;2022-12-29T10:37:04;15.5;;;2.8;;
74457;SDS011;62896;51.032;3.712;2022-12-29T10:40:24;15.5;;;2.8;;
74457;SDS011;62896;51.032;3.712;2022-12-29T10:43:44;15.5;;;2.8;;
74457;SDS011;62896;51.032;3.712;2022-12-29T10:47:03;15.5;;;2.8;;
74457;SDS011;62896;51.032;3.712;2022-12-29T10:50:24;15.5;;;2.8;;
74457;SDS011;62896;51.032;3.712;2022-12-29T10:53:43;14.4;;;2.3;;
74457;SDS011;62896;51.032;3.712;2022-12-29T10:57:03;14.4;;;2.3;;
74457;SDS011;62896;51.032;3.712;2022-12-29T11:00:23;14.4;;;2.3;;
74457;SDS011;62896;51.032;3.712;2022-12-29T11:03:46;14.4;;;2.3;;
74457;SDS011;62896;51.032;3.712;2022-12-29T11:07:03;14.4;;;2.3;;
74457;SDS011;62896;51.032;3.712;2022-12-29T11:10:28;14.4;;;2.3;;
74457;SDS011;62896;51.032;3.712;2022-12-29T11:13:47;14.4;;;2.3;;
74457;SDS011;62896;51.032;3.712;2022-12-29T11:17:03;8.4;;;1.6;;
74457;SDS011;62896;51.032;3.712;2022-12-29T11:20:27;8.4;;;1.6;;
74457;SDS011;62896;51.032;3.712;2022-12-29T11:23:43;8.4;;;1.6;;
74457;SDS011;62896;51.032;3.712;2022-12-29T11:27:08;8.4;;;1.6;;
74457;SDS011;62896;51.032;3.712;2022-12-29T11:30:23;8.4;;;1.6;;
74457;SDS011;62896;51.032;3.712;2022-12-29T11:33:43;8.4;;;1.6;;
74457;SDS011;62896;51.032;3.712;2022-12-29T11:37:04;8.4;;;1.6;;
74457;SDS011;62896;51.032;3.712;2022-12-29T11:40:23;8.4;;;1.6;;
74457;SDS011;62896;51.032;3.712;2022-12-29T11:43:43;8.7;;;1.6;;
74457;SDS011;62896;51.032;3.712;2022-12-29T11:47:03;8.7;;;1.6;;
74457;SDS011;62896;51.032;3.712;2022-12-29T11:50:23;8.7;;;1.6;;
74457;SDS011;62896;51.032;3.712;2022-12-29T11:53:43;8.7;;;1.6;;
74457;SDS011;62896;51.032;3.712;2022-12-29T11:57:08;8.7;;;1.6;;
74457;SDS011;62896;51.032;3.712;2022-12-29T12:00:23;8.7;;;1.6;;
74457;SDS011;62896;51.032;3.712;2022-12-29T12:03:44;8.7;;;1.6;;
74457;SDS011;62896;51.032;3.712;2022-12-29T12:07:05;15.4;;;2.4;;
74457;SDS011;62896;51.032;3.712;2022-12-29T12:10:25;15.4;;;2.4;;
74457;SDS011;62896;51.032;3.712;2022-12-29T12:13:45;15.4;;;2.4;;
74457;SDS011;62896;51.032;3.712;2022-12-29T12:17:04;15.4;;;2.4;;
74457;SDS011;62896;51.032;3.712;2022-12-29T12:20:26;15.4;;;2.4;;
74457;SDS011;62896;51.032;3.712;2022-12-29T12:23:45;15.4;;;2.4;;
74457;SDS011;62896;51.032;3.712;2022-12-29T12:27:07;15.4;;;2.4;;
74457;SDS011;62896;51.032;3.712;2022-12-29T12:30:24;15.4;;;2.4;;
74457;SDS011;62896;51.032;3.712;2022-12-29T12:33:44;12.2;;;1.9;;
74457;SDS011;62896;51.032;3.712;2022-12-29T12:37:09;12.2;;;1.9;;
74457;SDS011;62896;51.032;3.712;2022-12-29T12:40:58;12.2;;;1.9;;
74457;SDS011;62896;51.032;3.712;2022-12-29T12:43:44;12.2;;;1.9;;
74457;SDS011;62896;51.032;3.712;2022-12-29T12:47:22;12.2;;;1.9;;
74457;SDS011;62896;51.032;3.712;2022-12-29T12:50:29;12.2;;;1.9;;
74457;SDS011;62896;51.032;3.712;2022-12-29T12:53:48;12.2;;;1.9;;
74457;SDS011;62896;51.032;3.712;2022-12-29T12:57:06;5.9;;;1.1;;
74457;SDS011;62896;51.032;3.712;2022-12-29T13:00:23;5.9;;;1.1;;
74457;SDS011;62896;51.032;3.712;2022-12-29T13:03:47;5.9;;;1.1;;
74457;SDS011;62896;51.032;3.712;2022-12-29T13:07:04;5.9;;;1.1;;
74457;SDS011;62896;51.032;3.712;2022-12-29T13:10:27;5.9;;;1.1;;
74457;SDS011;62896;51.032;3.712;2022-12-29T13:13:49;5.9;;;1.1;;
74457;SDS011;62896;51.032;3.712;2022-12-29T13:17:05;5.9;;;1.1;;
74457;SDS011;62896;51.032;3.712;2022-12-29T13:20:26;5.9;;;1.1;;
74457;SDS011;62896;51.032;3.712;2022-12-29T13:23:44;11.3;;;1.3;;
74457;SDS011;62896;51.032;3.712;2022-12-29T13:27:04;11.3;;;1.3;;
74457;SDS011;62896;51.032;3.712;2022-12-29T13:30:26;11.3;;;1.3;;
74457;SDS011;62896;51.032;3.712;2022-12-29T13:33:47;11.3;;;1.3;;
74457;SDS011;62896;51.032;3.712;2022-12-29T13:37:03;11.3;;;1.3;;
74457;SDS011;62896;51.032;3.712;2022-12-29T13:40:23;11.3;;;1.3;;
74457;SDS011;62896;51.032;3.712;2022-12-29T13:43:43;11.3;;;1.3;;
74457;SDS011;62896;51.032;3.712;2022-12-29T13:47:05;3.3;;;0.7;;
74457;SDS011;62896;51.032;3.712;2022-12-29T13:50:24;3.3;;;0.7;;
74457;SDS011;62896;51.032;3.712;2022-12-29T13:53:51;3.3;;;0.7;;
74457;SDS011;62896;51.032;3.712;2022-12-29T13:57:05;3.3;;;0.7;;
74457;SDS011;62896;51.032;3.712;2022-12-29T14:00:23;3.3;;;0.7;;
74457;SDS011;62896;51.032;3.712;2022-12-29T14:03:44;3.3;;;0.7;;
74457;SDS011;62896;51.032;3.712;2022-12-29T14:07:03;3.3;;;0.7;;
74457;SDS011;62896;51.032;3.712;2022-12-29T14:10:26;3.3;;;0.7;;
74457;SDS011;62896;51.032;3.712;2022-12-29T14:13:44;4.8;;;0.9;;
74457;SDS011;62896;51.032;3.712;2022-12-29T14:17:08;4.8;;;0.9;;
74457;SDS011;62896;51.032;3.712;2022-12-29T14:20:23;4.8;;;0.9;;
74457;SDS011;62896;51.032;3.712;2022-12-29T14:23:44;4.8;;;0.9;;
74457;SDS011;62896;51.032;3.712;2022-12-29T14:27:16;4.8;;;0.9;;
74457;SDS011;62896;51.032;3.712;2022-12-29T14:30:55;4.8;;;0.9;;
74457;SDS011;62896;51.032;3.712;2022-12-29T14:34:14;4.8;;;0.9;;
74457;SDS011;62896;51.032;3.712;2022-12-29T14:37:03;6.2;;;0.9;;
74457;SDS011;62896;51.032;3.712;2022-12-29T14:40:23;6.2;;;0.9;;
74457;SDS011;62896;51.032;3.712;2022-12-29T14:43:51;6.2;;;0.9;;
74457;SDS011;62896;51.032;3.712;2022-12-29T14:47:04;6.2;;;0.9;;
74457;SDS011;62896;51.032;3.712;2022-12-29T14:50:24;6.2;;;0.9;;
74457;SDS011;62896;51.032;3.712;2022-12-29T14:53:44;6.2;;;0.9;;
74457;SDS011;62896;51.032;3.712;2022-12-29T14:57:04;6.2;;;0.9;;
74457;SDS011;62896;51.032;3.712;2022-12-29T15:00:23;6.2;;;0.9;;
74457;SDS011;62896;51.032;3.712;2022-12-29T15:03:43;4.8;;;1.1;;
74457;SDS011;62896;51.032;3.712;2022-12-29T15:07:04;4.8;;;1.1;;
74457;SDS011;62896;51.032;3.712;2022-12-29T15:10:23;4.8;;;1.1;;
74457;SDS011;62896;51.032;3.712;2022-12-29T15:13:43;4.8;;;1.1;;
74457;SDS011;62896;51.032;3.712;2022-12-29T15:17:09;4.8;;;1.1;;
74457;SDS011;62896;51.032;3.712;2022-12-29T15:20:24;4.8;;;1.1;;
74457;SDS011;62896;51.032;3.712;2022-12-29T15:23:43;4.8;;;1.1;;
74457;SDS011;62896;51.032;3.712;2022-12-29T15:27:03;11.8;;;1.9;;
74457;SDS011;62896;51.032;3.712;2022-12-29T15:30:23;11.8;;;1.9;;
74457;SDS011;62896;51.032;3.712;2022-12-29T15:33:44;11.8;;;1.9;;
74457;SDS011;62896;51.032;3.712;2022-12-29T15:37:05;11.8;;;1.9;;
74457;SDS011;62896;51.032;3.712;2022-12-29T15:40:24;11.8;;;1.9;;
74457;SDS011;62896;51.032;3.712;2022-12-29T15:43:47;11.8;;;1.9;;
74457;SDS011;62896;51.032;3.712;2022-12-29T15:47:03;11.8;;;1.9;;
74457;SDS011;62896;51.032;3.712;2022-12-29T15:50:24;11.8;;;1.9;;
74457;SDS011;62896;51.032;3.712;2022-12-29T15:53:43;6.5;;;1.4;;
74457;SDS011;62896;51.032;3.712;2022-12-29T15:57:03;6.5;;;1.4;;
74457;SDS011;62896;51.032;3.712;2022-12-29T16:00:24;6.5;;;1.4;;
74457;SDS011;62896;51.032;3.712;2022-12-29T16:03:43;6.5;;;1.4;;
74457;SDS011;62896;51.032;3.712;2022-12-29T16:07:04;6.5;;;1.4;;
74457;SDS011;62896;51.032;3.712;2022-12-29T16:10:28;6.5;;;1.4;;
74457;SDS011;62896;51.032;3.712;2022-12-29T16:13:43;6.5;;;1.4;;
74457;SDS011;62896;51.032;3.712;2022-12-29T16:17:03;11.4;;;2;;
74457;SDS011;62896;51.032;3.712;2022-12-29T16:20:23;11.4;;;2;;
74457;SDS011;62896;51.032;3.712;2022-12-29T16:23:43;11.4;;;2;;
74457;SDS011;62896;51.032;3.712;2022-12-29T16:27:06;11.4;;;2;;
74457;SDS011;62896;51.032;3.712;2022-12-29T16:30:23;11.4;;;2;;
74457;SDS011;62896;51.032;3.712;2022-12-29T16:33:44;11.4;;;2;;
74457;SDS011;62896;51.032;3.712;2022-12-29T16:37:03;11.4;;;2;;
74457;SDS011;62896;51.032;3.712;2022-12-29T16:40:26;11.4;;;2;;
74457;SDS011;62896;51.032;3.712;2022-12-29T16:43:43;10.5;;;2.1;;
74457;SDS011;62896;51.032;3.712;2022-12-29T16:47:19;10.5;;;2.1;;
74457;SDS011;62896;51.032;3.712;2022-12-29T16:50:23;10.5;;;2.1;;
74457;SDS011;62896;51.032;3.712;2022-12-29T16:53:47;10.5;;;2.1;;
74457;SDS011;62896;51.032;3.712;2022-12-29T16:57:03;10.5;;;2.1;;
74457;SDS011;62896;51.032;3.712;2022-12-29T17:00:25;10.5;;;2.1;;
74457;SDS011;62896;51.032;3.712;2022-12-29T17:03:44;10.5;;;2.1;;
74457;SDS011;62896;51.032;3.712;2022-12-29T17:07:04;15.6;;;2.8;;
74457;SDS011;62896;51.032;3.712;2022-12-29T17:10:23;15.6;;;2.8;;
74457;SDS011;62896;51.032;3.712;2022-12-29T17:13:43;15.6;;;2.8;;
74457;SDS011;62896;51.032;3.712;2022-12-29T17:17:03;15.6;;;2.8;;
74457;SDS011;62896;51.032;3.712;2022-12-29T17:20:24;15.6;;;2.8;;
74457;SDS011;62896;51.032;3.712;2022-12-29T17:23:43;15.6;;;2.8;;
74457;SDS011;62896;51.032;3.712;2022-12-29T17:27:03;15.6;;;2.8;;
74457;SDS011;62896;51.032;3.712;2022-12-29T17:30:24;15.6;;;2.8;;
74457;SDS011;62896;51.032;3.712;2022-12-29T17:33:43;15;;;2.4;;
74457;SDS011;62896;51.032;3.712;2022-12-29T17:37:04;15;;;2.4;;
74457;SDS011;62896;51.032;3.712;2022-12-29T17:40:24;15;;;2.4;;
74457;SDS011;62896;51.032;3.712;2022-12-29T17:43:43;15;;;2.4;;
74457;SDS011;62896;51.032;3.712;2022-12-29T17:47:03;15;;;2.4;;
74457;SDS011;62896;51.032;3.712;2022-12-29T17:50:24;15;;;2.4;;
74457;SDS011;62896;51.032;3.712;2022-12-29T17:53:43;15;;;2.4;;
74457;SDS011;62896;51.032;3.712;2022-12-29T17:57:03;17.1;;;2.4;;
74457;SDS011;62896;51.032;3.712;2022-12-29T18:00:24;17.1;;;2.4;;
74457;SDS011;62896;51.032;3.712;2022-12-29T18:03:43;17.1;;;2.4;;
74457;SDS011;62896;51.032;3.712;2022-12-29T18:07:04;17.1;;;2.4;;
74457;SDS011;62896;51.032;3.712;2022-12-29T18:10:24;17.1;;;2.4;;
74457;SDS011;62896;51.032;3.712;2022-12-29T18:13:43;17.1;;;2.4;;
74457;SDS011;62896;51.032;3.712;2022-12-29T18:17:07;17.1;;;2.4;;
74457;SDS011;62896;51.032;3.712;2022-12-29T18:20:23;17.1;;;2.4;;
74457;SDS011;62896;51.032;3.712;2022-12-29T18:23:43;13.6;;;2.7;;
74457;SDS011;62896;51.032;3.712;2022-12-29T18:27:08;13.6;;;2.7;;
74457;SDS011;62896;51.032;3.712;2022-12-29T18:30:23;13.6;;;2.7;;
74457;SDS011;62896;51.032;3.712;2022-12-29T18:33:43;13.6;;;2.7;;
74457;SDS011;62896;51.032;3.712;2022-12-29T18:37:03;13.6;;;2.7;;
74457;SDS011;62896;51.032;3.712;2022-12-29T18:40:23;13.6;;;2.7;;
74457;SDS011;62896;51.032;3.712;2022-12-29T18:43:43;13.6;;;2.7;;
74457;SDS011;62896;51.032;3.712;2022-12-29T18:47:03;12.8;;;2.2;;
74457;SDS011;62896;51.032;3.712;2022-12-29T18:50:23;12.8;;;2.2;;
74457;SDS011;62896;51.032;3.712;2022-12-29T18:53:43;12.8;;;2.2;;
74457;SDS011;62896;51.032;3.712;2022-12-29T18:57:03;12.8;;;2.2;;
74457;SDS011;62896;51.032;3.712;2022-12-29T19:00:23;12.8;;;2.2;;
74457;SDS011;62896;51.032;3.712;2022-12-29T19:03:43;12.8;;;2.2;;
74457;SDS011;62896;51.032;3.712;2022-12-29T19:07:03;12.8;;;2.2;;
74457;SDS011;62896;51.032;3.712;2022-12-29T19:10:23;12.8;;;2.2;;
74457;SDS011;62896;51.032;3.712;2022-12-29T19:13:43;9.8;;;1.9;;
74457;SDS011;62896;51.032;3.712;2022-12-29T19:17:03;9.8;;;1.9;;
74457;SDS011;62896;51.032;3.712;2022-12-29T19:20:25;9.8;;;1.9;;
74457;SDS011;62896;51.032;3.712;2022-12-29T19:23:43;9.8;;;1.9;;
74457;SDS011;62896;51.032;3.712;2022-12-29T19:27:03;9.8;;;1.9;;
74457;SDS011;62896;51.032;3.712;2022-12-29T19:30:23;9.8;;;1.9;;
74457;SDS011;62896;51.032;3.712;2022-12-29T19:33:43;9.8;;;1.9;;
74457;SDS011;62896;51.032;3.712;2022-12-29T19:37:03;10.1;;;1.5;;
74457;SDS011;62896;51.032;3.712;2022-12-29T19:40:24;10.1;;;1.5;;
74457;SDS011;62896;51.032;3.712;2022-12-29T19:43:43;10.1;;;1.5;;
74457;SDS011;62896;51.032;3.712;2022-12-29T19:47:03;10.1;;;1.5;;
74457;SDS011;62896;51.032;3.712;2022-12-29T19:50:23;10.1;;;1.5;;
74457;SDS011;62896;51.032;3.712;2022-12-29T19:53:44;10.1;;;1.5;;
74457;SDS011;62896;51.032;3.712;2022-12-29T19:57:03;10.1;;;1.5;;
74457;SDS011;62896;51.032;3.712;2022-12-29T20:00:23;10.1;;;1.5;;
74457;SDS011;62896;51.032;3.712;2022-12-29T20:03:43;17.3;;;2.2;;
74457;SDS011;62896;51.032;3.712;2022-12-29T20:07:03;17.3;;;2.2;;
74457;SDS011;62896;51.032;3.712;2022-12-29T20:10:23;17.3;;;2.2;;
74457;SDS011;62896;51.032;3.712;2022-12-29T20:13:43;17.3;;;2.2;;
74457;SDS011;62896;51.032;3.712;2022-12-29T20:17:03;17.3;;;2.2;;
74457;SDS011;62896;51.032;3.712;2022-12-29T20:20:23;17.3;;;2.2;;
74457;SDS011;62896;51.032;3.712;2022-12-29T20:23:43;17.3;;;2.2;;
74457;SDS011;62896;51.032;3.712;2022-12-29T20:27:04;15.8;;;2.5;;
74457;SDS011;62896;51.032;3.712;2022-12-29T20:30:23;15.8;;;2.5;;
74457;SDS011;62896;51.032;3.712;2022-12-29T20:33:43;15.8;;;2.5;;
74457;SDS011;62896;51.032;3.712;2022-12-29T20:37:03;15.8;;;2.5;;
74457;SDS011;62896;51.032;3.712;2022-12-29T20:40:23;15.8;;;2.5;;